Observations for Trim Patrick St
| Time | AQI | Temp °C | Hum % | Pres Pa | CO μg/m³ | H₂S μg/m³ | NO μg/m³ | NO₂ μg/m³ | O₃ μg/m³ | SO₂ μg/m³ | PM1 μg/m³ | PM2.5 μg/m³ | PM10 μg/m³ |
|---|---|---|---|---|---|---|---|---|---|---|---|---|---|
| Saturday 1 August 2026 | |||||||||||||
| 10:23 | 1 | 22.6 | 49 | 69,422 | 0.04 | 0 | 2.6 | 6.45 | 53.44 | 3.79 | 7.14 | 14.91 | 16.41 |
| 10:22 | 1 | 22.5 | 52 | 69,485 | 0.04 | 0 | 2.86 | 6.28 | 52.68 | 3.64 | 5.43 | 11.58 | 12.74 |
| 10:21 | 1 | 22.4 | 52 | 69,549 | 0.02 | 0 | 2.83 | 4.57 | 50.79 | 3.9 | 4.57 | 9.35 | 10.29 |
| 10:20 | 1 | 22.2 | 52 | 69,597 | 0 | 0 | 2.85 | 10.86 | 68.33 | 4.1 | 5.43 | 10.86 | 11.94 |
| 10:18 | 1 | 22 | 51 | 69,744 | 0 | 0 | 2.85 | 6.44 | 62.03 | 3.54 | 6.29 | 12.44 | 13.68 |
| 10:17 | 1 | 21.9 | 51 | 69,778 | 0 | 0 | 2.89 | 4.27 | 51.58 | 3.74 | 5.43 | 14.72 | 16.2 |
| 10:15 | 1 | 21.8 | 52 | 69,909 | 0 | 0 | 3.03 | 4.62 | 55.93 | 2.88 | 4.57 | 12.39 | 13.63 |
| 10:14 | 1 | 21.7 | 52 | 69,938 | 0 | 0 | 2.93 | 5.19 | 51.26 | 3.27 | 3.71 | 10.07 | 11.07 |
| 10:12 | 1 | 21.6 | 52 | 70,105 | 0 | 0 | 2.82 | 3.84 | 45.49 | 3.2 | 3.71 | 10.12 | 11.13 |
| 10:11 | 1 | 21.5 | 51 | 70,225 | 0 | 0 | 2.61 | 6.43 | 61.25 | 2.84 | 5.43 | 10.15 | 11.16 |
| 10:07 | 1 | 21.5 | 51 | 70,362 | 0 | 0 | 2.65 | 2.77 | 42.62 | 2.72 | 3.71 | 9.37 | 10.3 |
| 10:06 | 1 | 21.5 | 52 | 70,425 | 0 | 0 | 2.78 | 4.83 | 59.21 | 3.46 | 3.71 | 8.53 | 9.38 |
| 10:05 | 1 | 21.5 | 51 | 70,478 | 0 | 0 | 2.72 | 2.68 | 40.62 | 2.07 | 2.86 | 7.85 | 8.64 |
| 10:04 | 1 | 21.5 | 52 | 70,617 | 0 | 0 | 2.69 | 3.28 | 58.34 | 2.63 | 2 | 7.84 | 8.62 |
| 10:03 | 1 | 21.5 | 50 | 70,791 | 0 | 0 | 2.66 | 1.11 | 43.92 | 2.59 | 2.86 | 7.91 | 8.7 |
| 10:02 | 1 | 21.5 | 52 | 70,973 | 0 | 0 | 2.94 | 0.05 | 29.94 | 2.94 | 3.71 | 9.32 | 10.26 |
| 10:01 | 1 | 21.5 | 52 | 71,126 | 0 | 0 | 2.9 | 3.45 | 43.66 | 2.8 | 3.71 | 8.55 | 9.41 |
| 10:00 | 1 | 21.6 | 53 | 71,153 | 0 | 0 | 2.9 | 3.35 | 40.21 | 3.21 | 4.57 | 10.04 | 11.04 |
| 09:59 | 1 | 21.6 | 52 | 71,128 | 0 | 0 | 2.94 | 6.27 | 49.45 | 3.58 | 3.71 | 9.29 | 10.22 |
| 09:58 | 1 | 21.6 | 52 | 71,069 | 0 | 0 | 2.94 | 3.52 | 43.95 | 3.31 | 3.71 | 9.33 | 10.26 |